Time;durP1;ratioP1;P1;durP2;ratioP2;P2;SDS_P1;SDS_P2;PMS_P1;PMS_P2;Temp;Humidity;BMP_temperature;BMP_pressure;BME280_temperature;BME280_humidity;BME280_pressure;Samples;Min_cycle;Max_cycle;Signal;HPM_P1;HPM_P2
2023/03/30 00:00:37;;;;;;;14.82;6.80;;;;;;;7.69;35.75;100520.94;5077338;28;20301;-67
2023/03/30 00:03:03;;;;;;;12.23;5.45;;;;;;;7.74;36.34;100522.38;5076603;28;20301;-65
2023/03/30 00:05:30;;;;;;;7.57;4.60;;;;;;;7.85;35.61;100522.34;5077496;28;20227;-69
2023/03/30 00:07:56;;;;;;;9.48;5.10;;;;;;;7.94;36.30;100529.50;5061386;28;20048;-65
2023/03/30 00:10:22;;;;;;;9.60;4.85;;;;;;;7.98;35.60;100529.13;5057390;28;20048;-69
2023/03/30 00:12:51;;;;;;;9.60;4.00;;;;;;;8.03;35.03;100518.19;5058164;28;20122;-65
2023/03/30 00:15:20;;;;;;;3.47;3.13;;;;;;;7.94;35.77;100514.50;5058070;28;20033;-65
2023/03/30 00:17:46;;;;;;;5.95;3.85;;;;;;;8.00;35.33;100513.16;5058416;28;20222;-69
2023/03/30 00:20:13;;;;;;;4.38;3.50;;;;;;;8.05;35.09;100510.97;5058140;28;20039;-64
2023/03/30 00:22:40;;;;;;;6.75;3.78;;;;;;;8.13;34.91;100507.69;5055618;28;20041;-65
2023/03/30 00:25:08;;;;;;;5.07;3.42;;;;;;;8.19;34.99;100509.81;5057766;28;20028;-66
2023/03/30 00:27:35;;;;;;;6.45;3.80;;;;;;;8.16;34.77;100516.19;5061437;28;20047;-69
2023/03/30 00:30:02;;;;;;;8.25;4.93;;;;;;;8.12;35.05;100520.06;5060478;28;20105;-65
2023/03/30 00:32:28;;;;;;;9.13;4.97;;;;;;;8.13;34.63;100520.88;5058578;28;20059;-65
2023/03/30 00:34:53;;;;;;;7.60;4.28;;;;;;;8.08;34.51;100518.63;5057166;28;20041;-65
2023/03/30 00:37:19;;;;;;;6.70;3.75;;;;;;;8.07;34.88;100513.50;5057792;28;20037;-65
2023/03/30 00:39:44;;;;;;;14.02;5.50;;;;;;;7.89;34.92;100513.22;5057162;28;20047;-70
2023/03/30 00:42:16;;;;;;;8.20;4.78;;;;;;;7.76;35.30;100507.25;5074559;28;20045;-65
2023/03/30 00:45:07;;;;;;;7.13;3.80;;;;;;;7.75;35.60;100510.88;5073257;28;20029;-69
2023/03/30 00:47:40;;;;;;;5.30;4.20;;;;;;;7.47;37.41;100513.09;5059384;28;20064;-65
2023/03/30 00:50:07;;;;;;;7.45;3.72;;;;;;;7.47;36.95;100510.47;5058374;28;20079;-69
2023/03/30 00:52:36;;;;;;;4.65;3.47;;;;;;;7.36;36.59;100511.34;5058584;28;20045;-70
2023/03/30 00:55:06;;;;;;;5.32;4.03;;;;;;;7.12;36.54;100507.16;5058415;28;20072;-65
2023/03/30 00:57:35;;;;;;;6.32;3.70;;;;;;;7.02;36.87;100509.66;5056779;28;20095;-66
2023/03/30 01:00:00;;;;;;;4.70;3.28;;;;;;;7.03;35.98;100511.34;5055514;28;20055;-65
2023/03/30 01:02:30;;;;;;;6.32;3.63;;;;;;;7.04;36.75;100516.50;5057050;28;20242;-65
2023/03/30 01:04:56;;;;;;;7.95;3.92;;;;;;;7.10;36.23;100514.34;5055831;28;20029;-65
2023/03/30 01:07:23;;;;;;;11.38;6.15;;;;;;;7.24;36.11;100514.91;5057434;28;20045;-65
2023/03/30 01:09:51;;;;;;;14.32;5.95;;;;;;;7.40;35.26;100506.66;5057426;28;20063;-65
2023/03/30 01:12:16;;;;;;;32.03;13.05;;;;;;;7.51;36.45;100511.91;5057348;28;20032;-70
2023/03/30 01:14:42;;;;;;;15.02;6.15;;;;;;;7.60;35.90;100518.22;5073005;28;20047;-69
2023/03/30 01:17:07;;;;;;;7.50;4.22;;;;;;;7.64;36.39;100514.38;5065695;28;20053;-65
2023/03/30 01:19:42;;;;;;;9.40;4.72;;;;;;;7.56;37.31;100522.06;5060972;28;20380;-65
2023/03/30 01:22:37;;;;;;;5.38;3.25;;;;;;;7.38;37.40;100513.84;5061382;28;20458;-65
2023/03/30 01:25:50;;;;;;;9.80;4.40;;;;;;;7.21;38.26;100520.41;5063543;28;20055;-65
2023/03/30 01:28:51;;;;;;;6.07;3.70;;;;;;;7.02;38.47;100512.31;5060962;28;20080;-65
2023/03/30 01:32:04;;;;;;;6.70;3.45;;;;;;;6.93;37.66;100516.50;5060846;28;20040;-69
2023/03/30 01:34:30;;;;;;;6.30;3.10;;;;;;;6.82;38.58;100513.03;5061739;28;20095;-69
2023/03/30 01:37:07;;;;;;;7.40;3.13;;;;;;;6.82;38.27;100511.22;5060915;28;20071;-65
2023/03/30 01:39:33;;;;;;;5.88;3.05;;;;;;;6.85;38.49;100516.25;5060513;28;20033;-65
2023/03/30 01:42:37;;;;;;;5.70;3.38;;;;;;;6.72;38.75;100518.16;5059114;28;20135;-65
2023/03/30 01:45:19;;;;;;;7.93;3.83;;;;;;;6.80;38.51;100526.31;5059291;28;20494;-65
2023/03/30 01:47:44;;;;;;;5.97;3.72;;;;;;;6.88;37.85;100526.53;5061063;28;20052;-69
2023/03/30 01:50:23;;;;;;;6.38;3.83;;;;;;;6.76;39.13;100526.66;5060747;28;20037;-65
2023/03/30 01:53:07;;;;;;;7.15;3.95;;;;;;;6.88;39.52;100520.44;5061699;28;20374;-69
2023/03/30 01:55:55;;;;;;;8.25;3.78;;;;;;;6.92;39.66;100524.50;5060094;28;20037;-70
2023/03/30 01:58:31;;;;;;;6.97;4.30;;;;;;;6.92;38.81;100521.88;5063697;28;20041;-65
2023/03/30 02:01:00;;;;;;;9.10;4.20;;;;;;;6.84;39.07;100521.63;5068591;28;20043;-68
2023/03/30 02:03:29;;;;;;;8.75;3.75;;;;;;;6.93;38.79;100519.13;5075536;28;20024;-69
2023/03/30 02:05:59;;;;;;;4.90;3.30;;;;;;;6.99;39.51;100518.66;5073845;28;20043;-68
2023/03/30 02:08:29;;;;;;;7.10;3.50;;;;;;;7.01;39.21;100514.09;5074737;28;20348;-65
2023/03/30 02:10:57;;;;;;;4.78;3.10;;;;;;;7.05;38.88;100515.53;5073804;28;20044;-69
2023/03/30 02:13:25;;;;;;;5.45;3.33;;;;;;;7.08;38.70;100524.97;5074703;28;20035;-69
2023/03/30 02:16:15;;;;;;;5.97;3.85;;;;;;;7.03;39.14;100524.50;5074360;28;20246;-65
2023/03/30 02:18:40;;;;;;;7.63;4.28;;;;;;;7.02;39.01;100521.03;5075636;28;20028;-70
2023/03/30 02:21:07;;;;;;;7.13;4.20;;;;;;;7.15;38.50;100522.72;5073831;28;20364;-64
2023/03/30 02:23:38;;;;;;;7.78;4.47;;;;;;;7.25;37.87;100524.50;5075181;28;20020;-69
2023/03/30 02:26:06;;;;;;;6.22;4.07;;;;;;;7.32;38.52;100524.88;5070539;28;20283;-66
2023/03/30 02:28:32;;;;;;;6.20;3.95;;;;;;;7.16;39.84;100530.47;5074451;28;20146;-69
2023/03/30 02:30:58;;;;;;;7.63;4.25;;;;;;;6.71;41.90;100545.44;5074536;28;20036;-69
2023/03/30 02:33:36;;;;;;;5.35;3.88;;;;;;;6.44;42.33;100542.28;5072969;28;20092;-70
2023/03/30 02:36:28;;;;;;;6.68;4.55;;;;;;;6.33;43.10;100541.28;5071958;28;20111;-65
2023/03/30 02:39:04;;;;;;;8.85;4.43;;;;;;;6.35;42.75;100536.75;5070770;28;20254;-69
2023/03/30 02:41:37;;;;;;;8.40;4.88;;;;;;;6.38;42.14;100543.59;5073811;28;20036;-69
2023/03/30 02:44:28;;;;;;;9.98;4.70;;;;;;;6.50;41.27;100545.28;5072573;28;20051;-65
2023/03/30 02:47:15;;;;;;;8.00;4.43;;;;;;;6.64;41.47;100550.34;5073281;28;20101;-65
2023/03/30 02:49:50;;;;;;;6.20;4.38;;;;;;;6.67;41.61;100546.63;5071958;28;20036;-70
2023/03/30 02:52:41;;;;;;;9.73;4.95;;;;;;;6.62;40.41;100546.97;5073680;28;20036;-68
2023/03/30 02:55:18;;;;;;;11.37;5.00;;;;;;;6.63;40.84;100556.56;5073337;28;20047;-69
2023/03/30 02:58:02;;;;;;;7.80;5.00;;;;;;;6.34;40.75;100557.91;5073205;28;20029;-65
2023/03/30 03:00:42;;;;;;;9.88;5.53;;;;;;;6.07;41.00;100566.03;5073771;28;20346;-67
2023/03/30 03:03:16;;;;;;;9.27;6.55;;;;;;;5.83;41.18;100571.28;5072969;28;20028;-63
2023/03/30 03:05:43;;;;;;;10.88;6.25;;;;;;;5.68;41.31;100569.75;5071794;28;20108;-66
2023/03/30 03:08:12;;;;;;;16.42;7.53;;;;;;;5.31;42.17;100569.75;5073906;28;20090;-63
2023/03/30 03:10:38;;;;;;;16.55;7.10;;;;;;;4.93;43.29;100569.78;5069838;28;20143;-62
2023/03/30 03:13:03;;;;;;;14.05;7.07;;;;;;;4.94;43.76;100568.00;5072106;28;20032;-62
2023/03/30 03:15:29;;;;;;;14.95;7.35;;;;;;;5.11;43.22;100565.03;5072875;28;20052;-64
2023/03/30 03:17:54;;;;;;;13.18;6.32;;;;;;;5.31;43.40;100575.00;5072762;28;20040;-69
2023/03/30 03:20:20;;;;;;;17.48;8.48;;;;;;;5.35;43.64;100571.22;5071623;28;20521;-69
2023/03/30 03:22:45;;;;;;;21.45;10.00;;;;;;;5.48;42.76;100572.97;5072414;28;20048;-65
2023/03/30 03:25:11;;;;;;;24.92;10.10;;;;;;;5.46;43.57;100573.09;5073488;28;20024;-69
2023/03/30 03:27:37;;;;;;;17.98;8.88;;;;;;;5.58;42.68;100574.00;5072316;28;20036;-69
2023/03/30 03:30:02;;;;;;;15.20;8.95;;;;;;;5.75;42.25;100574.47;5072526;28;20109;-65
2023/03/30 03:32:28;;;;;;;13.82;8.15;;;;;;;5.74;42.88;100571.94;5071636;28;20086;-65
2023/03/30 03:34:54;;;;;;;18.50;8.52;;;;;;;5.81;42.83;100564.44;5073286;28;20124;-65
2023/03/30 03:37:19;;;;;;;15.90;8.05;;;;;;;5.82;42.05;100566.13;5068826;28;20037;-65
2023/03/30 03:39:45;;;;;;;15.00;7.50;;;;;;;5.91;42.87;100571.59;5073320;28;20041;-65
2023/03/30 03:42:11;;;;;;;16.13;8.13;;;;;;;5.96;42.97;100574.72;5069552;28;20326;-65
2023/03/30 03:44:39;;;;;;;18.17;8.95;;;;;;;5.99;42.56;100574.50;5073019;28;20024;-64
2023/03/30 03:47:05;;;;;;;18.20;8.85;;;;;;;6.05;41.47;100574.03;5071979;28;20033;-65
2023/03/30 03:49:30;;;;;;;13.52;8.13;;;;;;;6.19;41.63;100586.16;5071992;28;20055;-69
2023/03/30 03:51:56;;;;;;;17.33;8.68;;;;;;;5.64;41.87;100592.78;5072457;28;20049;-63
2023/03/30 03:54:22;;;;;;;13.30;6.88;;;;;;;5.17;42.56;100598.75;5071685;28;20036;-65
2023/03/30 03:56:47;;;;;;;15.00;7.15;;;;;;;5.06;43.17;100594.22;5073207;28;20056;-66
2023/03/30 03:59:13;;;;;;;16.02;7.63;;;;;;;5.16;43.09;100604.94;5069002;28;20099;-69
2023/03/30 04:01:38;;;;;;;16.25;9.30;;;;;;;5.40;42.48;100602.41;5072594;28;20124;-70
2023/03/30 04:04:04;;;;;;;15.13;7.57;;;;;;;5.45;42.45;100601.13;5070705;28;20361;-69
2023/03/30 04:06:29;;;;;;;15.07;9.25;;;;;;;5.28;42.58;100598.84;5073078;28;20043;-63
2023/03/30 04:08:55;;;;;;;16.40;9.13;;;;;;;5.13;43.60;100592.88;5070613;28;20043;-63
2023/03/30 04:11:21;;;;;;;13.25;8.23;;;;;;;5.30;43.44;100596.97;5069474;28;20047;-70
2023/03/30 04:13:47;;;;;;;15.07;9.43;;;;;;;5.56;42.62;100596.91;5070026;28;20226;-67
2023/03/30 04:16:12;;;;;;;16.42;9.07;;;;;;;5.60;42.76;100596.59;5070458;28;20040;-67
2023/03/30 04:18:40;;;;;;;21.70;9.40;;;;;;;5.59;42.92;100596.69;5071588;28;20037;-67
2023/03/30 04:21:11;;;;;;;16.00;9.10;;;;;;;5.73;42.84;100601.78;5071684;28;20344;-64
2023/03/30 04:23:38;;;;;;;18.63;11.00;;;;;;;5.58;42.67;100601.09;5071780;28;20229;-65
2023/03/30 04:26:06;;;;;;;17.95;11.30;;;;;;;5.39;43.73;100611.25;5075839;28;20048;-63
2023/03/30 04:28:33;;;;;;;21.95;11.38;;;;;;;5.58;43.57;100605.53;5076058;28;20082;-65
2023/03/30 04:31:02;;;;;;;22.02;12.30;;;;;;;5.78;43.84;100608.41;5075566;28;20048;-65
2023/03/30 04:33:28;;;;;;;24.08;12.52;;;;;;;5.86;43.24;100620.16;5076232;28;20294;-64
2023/03/30 04:35:54;;;;;;;29.50;11.93;;;;;;;5.82;44.14;100614.28;5075908;28;20250;-67
2023/03/30 04:38:22;;;;;;;41.80;17.08;;;;;;;5.87;43.72;100614.78;5076188;28;20108;-67
2023/03/30 04:40:49;;;;;;;23.20;10.88;;;;;;;5.92;44.68;100615.31;5077430;28;20350;-69
2023/03/30 04:43:18;;;;;;;21.08;10.25;;;;;;;6.01;45.49;100624.31;5077334;28;20033;-69
2023/03/30 04:46:02;;;;;;;26.67;11.93;;;;;;;5.99;44.25;100628.84;5077663;28;20039;-67
2023/03/30 04:48:27;;;;;;;18.15;10.90;;;;;;;5.98;45.29;100643.78;5067607;28;20425;-67
2023/03/30 04:50:54;;;;;;;18.45;10.23;;;;;;;5.93;45.07;100637.19;5081473;28;20040;-67
2023/03/30 04:53:21;;;;;;;20.40;10.10;;;;;;;5.86;44.76;100642.00;5080602;28;20313;-63
2023/03/30 04:55:49;;;;;;;16.35;8.90;;;;;;;5.73;44.73;100636.78;5080827;28;20215;-63
2023/03/30 04:58:15;;;;;;;20.52;10.88;;;;;;;5.69;45.63;100645.84;5080844;28;20237;-67
2023/03/30 05:00:41;;;;;;;16.95;9.18;;;;;;;4.61;48.15;100658.53;5080585;28;20059;-62
2023/03/30 05:03:06;;;;;;;17.08;8.73;;;;;;;3.90;51.89;100666.66;5081769;28;20302;-62
2023/03/30 05:05:32;;;;;;;13.73;8.00;;;;;;;4.01;51.75;100666.81;5081494;28;20025;-67
2023/03/30 05:07:59;;;;;;;13.88;7.82;;;;;;;4.31;51.54;100663.19;5080437;28;20040;-66
2023/03/30 05:10:24;;;;;;;17.90;7.85;;;;;;;4.58;51.27;100671.03;5080599;28;20113;-63
2023/03/30 05:12:54;;;;;;;13.85;7.15;;;;;;;4.51;51.34;100665.34;5080334;28;20040;-63
2023/03/30 05:15:19;;;;;;;17.90;9.45;;;;;;;4.30;52.80;100659.72;5079650;28;20024;-67
2023/03/30 05:17:45;;;;;;;33.65;18.80;;;;;;;4.37;53.06;100662.78;5080324;28;20048;-63
2023/03/30 05:20:10;;;;;;;30.60;15.85;;;;;;;4.54;52.47;100670.38;5080308;28;20040;-69
2023/03/30 05:22:36;;;;;;;30.33;13.90;;;;;;;4.16;53.64;100676.34;5080186;28;20036;-64
2023/03/30 05:25:03;;;;;;;23.50;12.20;;;;;;;4.31;54.40;100676.28;5080360;28;20058;-65
2023/03/30 05:27:29;;;;;;;21.25;12.13;;;;;;;4.10;54.02;100684.56;5080117;28;20040;-64
2023/03/30 05:29:54;;;;;;;18.30;10.23;;;;;;;4.13;52.37;100688.78;5080086;28;20145;-65
2023/03/30 05:32:20;;;;;;;13.60;7.95;;;;;;;4.23;49.55;100689.06;5080058;28;20350;-69
2023/03/30 05:34:47;;;;;;;17.38;9.02;;;;;;;4.67;49.82;100683.53;5080017;28;20199;-65
2023/03/30 05:37:13;;;;;;;14.95;8.05;;;;;;;4.86;48.74;100678.75;5079806;28;20032;-69
2023/03/30 05:39:38;;;;;;;11.48;7.13;;;;;;;5.10;47.53;100673.63;5080004;28;20397;-69
2023/03/30 05:42:04;;;;;;;13.30;7.32;;;;;;;5.53;46.67;100681.19;5079806;28;20039;-65
2023/03/30 05:44:30;;;;;;;11.82;6.72;;;;;;;6.02;44.62;100668.06;5080433;28;20044;-69
2023/03/30 05:46:56;;;;;;;12.02;6.47;;;;;;;6.38;44.36;100672.47;5079259;28;20032;-69
2023/03/30 05:49:21;;;;;;;12.20;7.10;;;;;;;6.42;46.33;100663.41;5065155;28;20099;-66
2023/03/30 05:51:47;;;;;;;11.55;7.38;;;;;;;6.91;44.89;100673.75;5068238;28;20229;-70
2023/03/30 05:54:13;;;;;;;10.07;6.82;;;;;;;7.24;42.83;100670.31;5079807;28;20036;-65
2023/03/30 05:56:41;;;;;;;11.23;7.20;;;;;;;7.56;41.34;100670.50;5080935;28;20044;-65
2023/03/30 05:59:07;;;;;;;12.27;6.78;;;;;;;7.88;41.02;100659.19;5080557;28;20058;-69
2023/03/30 06:01:33;;;;;;;11.38;8.07;;;;;;;8.06;40.55;100667.44;5079230;28;20040;-66
2023/03/30 06:03:59;;;;;;;13.50;8.35;;;;;;;8.44;39.97;100670.50;5079343;28;20020;-69
2023/03/30 06:06:26;;;;;;;20.98;12.05;;;;;;;8.37;40.26;100668.47;5069005;28;20367;-64
2023/03/30 06:08:52;;;;;;;22.98;13.07;;;;;;;8.51;39.21;100682.22;5079909;28;20079;-67
2023/03/30 06:11:18;;;;;;;19.55;9.82;;;;;;;8.84;39.79;100673.31;5079803;28;20059;-64
2023/03/30 06:13:43;;;;;;;9.45;8.27;;;;;;;8.77;39.97;100679.22;5078938;28;20040;-67
2023/03/30 06:16:09;;;;;;;13.65;7.55;;;;;;;9.29;38.91;100680.97;5079289;28;20129;-67
2023/03/30 06:18:35;;;;;;;18.25;8.98;;;;;;;9.61;37.40;100680.88;5080238;28;20025;-63
2023/03/30 06:21:05;;;;;;;21.17;9.90;;;;;;;9.47;36.90;100675.94;5079814;28;20071;-64
2023/03/30 06:23:32;;;;;;;18.30;10.00;;;;;;;9.44;36.99;100684.97;5080098;28;20036;-64
2023/03/30 06:25:58;;;;;;;13.75;8.10;;;;;;;9.40;36.33;100682.72;5079657;28;20028;-63
2023/03/30 06:28:24;;;;;;;16.10;8.95;;;;;;;9.66;37.58;100685.75;5079470;28;20039;-63
2023/03/30 06:30:50;;;;;;;17.02;10.90;;;;;;;9.51;37.43;100690.56;5079420;28;20045;-67
2023/03/30 06:33:16;;;;;;;14.82;9.88;;;;;;;9.27;38.39;100688.19;5079437;28;20350;-64
2023/03/30 06:35:49;;;;;;;13.25;8.25;;;;;;;9.37;39.28;100697.03;5079328;28;20044;-67
2023/03/30 06:38:16;;;;;;;15.85;8.48;;;;;;;9.45;39.90;100704.31;5065420;28;20361;-63
2023/03/30 06:40:42;;;;;;;16.27;8.00;;;;;;;9.92;39.67;100693.09;5079581;28;20330;-67
2023/03/30 06:43:14;;;;;;;11.95;7.82;;;;;;;9.89;39.48;100697.81;5078817;28;20058;-67
2023/03/30 06:45:40;;;;;;;12.50;7.38;;;;;;;9.99;38.91;100696.03;5079014;28;20032;-64
2023/03/30 06:48:05;;;;;;;11.02;6.75;;;;;;;10.26;37.36;100698.06;5079135;28;20306;-68
2023/03/30 06:50:31;;;;;;;13.15;7.07;;;;;;;10.31;38.23;100693.19;5079427;28;20082;-65
2023/03/30 06:52:57;;;;;;;9.32;5.78;;;;;;;10.30;38.02;100699.47;5079272;28;20105;-67
2023/03/30 06:55:22;;;;;;;9.90;5.38;;;;;;;10.40;37.61;100703.00;5079348;28;20301;-68
2023/03/30 06:57:48;;;;;;;9.90;5.60;;;;;;;10.59;36.39;100707.47;5066641;28;20075;-68
2023/03/30 07:00:14;;;;;;;8.38;5.03;;;;;;;10.83;35.94;100705.25;5062172;28;20045;-64
2023/03/30 07:02:43;;;;;;;9.90;5.05;;;;;;;11.03;35.91;100695.47;5060093;28;20032;-69
2023/03/30 07:05:09;;;;;;;7.97;5.03;;;;;;;10.84;35.69;100692.84;5072772;28;20111;-65
2023/03/30 07:07:35;;;;;;;6.57;4.90;;;;;;;10.94;35.29;100693.66;5058696;28;20226;-68
2023/03/30 07:10:08;;;;;;;9.20;5.10;;;;;;;11.36;33.99;100691.47;5061402;28;20044;-64
2023/03/30 07:12:35;;;;;;;9.48;4.63;;;;;;;11.99;33.40;100686.38;5078098;28;20039;-68
2023/03/30 07:15:00;;;;;;;6.85;4.70;;;;;;;12.19;32.56;100694.25;5077354;28;20094;-68
2023/03/30 07:17:26;;;;;;;13.82;4.88;;;;;;;12.59;31.38;100680.56;5078384;28;20138;-67
2023/03/30 07:19:51;;;;;;;6.35;3.90;;;;;;;12.66;31.70;100684.28;5078786;28;20253;-67
2023/03/30 07:22:17;;;;;;;5.40;4.00;;;;;;;12.73;30.94;100677.38;5078603;28;20425;-64
2023/03/30 07:24:43;;;;;;;6.25;4.00;;;;;;;12.76;30.40;100677.91;5078447;28;20039;-68
2023/03/30 07:27:09;;;;;;;7.90;3.75;;;;;;;13.16;29.63;100681.00;5079201;28;20040;-64
2023/03/30 07:29:35;;;;;;;4.80;3.70;;;;;;;13.20;29.37;100683.25;5078758;28;20040;-67
2023/03/30 07:32:02;;;;;;;6.68;3.92;;;;;;;13.59;28.80;100677.50;5077621;28;20031;-68
2023/03/30 07:34:28;;;;;;;6.20;3.70;;;;;;;13.37;29.46;100682.34;5076739;28;20031;-67
2023/03/30 07:36:53;;;;;;;5.85;3.60;;;;;;;13.28;29.20;100671.81;5076894;28;20042;-68
2023/03/30 07:39:19;;;;;;;4.68;3.22;;;;;;;13.57;30.23;100667.03;5076528;28;20028;-67
2023/03/30 07:41:45;;;;;;;6.95;2.95;;;;;;;12.95;29.91;100676.03;5076948;28;20310;-68
2023/03/30 07:44:10;;;;;;;3.42;2.78;;;;;;;13.08;29.91;100687.09;5077218;28;20024;-68
2023/03/30 07:46:36;;;;;;;3.60;2.78;;;;;;;12.38;30.58;100678.16;5076953;28;20242;-67
2023/03/30 07:49:01;;;;;;;5.55;2.85;;;;;;;12.91;31.25;100675.53;5077680;28;20028;-63
2023/03/30 07:51:27;;;;;;;4.95;2.95;;;;;;;13.13;31.80;100679.50;5077941;28;20414;-68
2023/03/30 07:53:52;;;;;;;4.55;2.90;;;;;;;12.87;30.74;100674.16;5077058;28;20153;-65
2023/03/30 07:56:18;;;;;;;5.10;3.05;;;;;;;12.59;30.84;100676.09;5077427;28;20367;-68
2023/03/30 07:58:43;;;;;;;4.00;2.53;;;;;;;12.58;31.21;100679.72;5076700;28;20074;-63
2023/03/30 08:01:09;;;;;;;5.35;2.85;;;;;;;12.82;31.64;100676.44;5077196;28;20090;-68
2023/03/30 08:03:36;;;;;;;4.38;2.90;;;;;;;12.85;30.92;100677.97;5073558;28;20025;-68
2023/03/30 08:06:04;;;;;;;4.38;2.90;;;;;;;12.65;31.41;100674.63;5068682;28;20048;-67
2023/03/30 08:08:30;;;;;;;5.50;3.05;;;;;;;13.21;31.71;100674.28;5078200;28;20051;-67
2023/03/30 08:10:56;;;;;;;8.00;3.60;;;;;;;13.72;31.19;100667.25;5077647;28;20047;-68
2023/03/30 08:13:21;;;;;;;5.20;3.05;;;;;;;13.92;30.53;100670.50;5077678;28;20526;-65
2023/03/30 08:15:47;;;;;;;5.63;3.35;;;;;;;14.05;30.21;100671.69;5077029;28;20048;-65
2023/03/30 08:18:13;;;;;;;7.18;3.53;;;;;;;14.09;30.79;100663.38;5077471;28;20028;-68
2023/03/30 08:20:40;;;;;;;5.28;3.25;;;;;;;14.39;30.83;100665.44;5077819;28;20036;-68
2023/03/30 08:23:08;;;;;;;5.10;2.90;;;;;;;14.43;30.63;100660.66;5077191;28;20107;-64
2023/03/30 08:25:34;;;;;;;5.78;3.28;;;;;;;14.53;30.69;100659.50;5077523;28;20063;-65
2023/03/30 08:27:59;;;;;;;4.53;2.60;;;;;;;14.55;30.97;100660.16;5077602;28;20035;-65
2023/03/30 08:30:26;;;;;;;5.72;3.22;;;;;;;14.61;30.02;100648.88;5077901;28;20044;-64
2023/03/30 08:32:52;;;;;;;4.25;2.95;;;;;;;14.33;29.93;100647.47;5077921;28;20123;-68
2023/03/30 08:35:18;;;;;;;4.60;3.05;;;;;;;13.97;32.47;100645.06;5077436;28;20074;-68
2023/03/30 08:37:43;;;;;;;4.85;3.28;;;;;;;13.98;31.20;100645.88;5077398;28;20078;-68
2023/03/30 08:40:13;;;;;;;5.25;3.15;;;;;;;13.75;31.66;100632.34;5077232;28;20312;-68
2023/03/30 08:42:47;;;;;;;4.90;3.33;;;;;;;13.99;32.19;100639.56;5077122;28;20331;-67
2023/03/30 08:45:13;;;;;;;6.32;2.83;;;;;;;14.00;32.63;100634.06;5072314;28;20044;-65
2023/03/30 08:47:43;;;;;;;6.38;3.53;;;;;;;14.03;32.14;100630.25;5077917;28;20075;-68
2023/03/30 08:50:34;;;;;;;3.47;2.88;;;;;;;13.96;32.78;100631.91;5076643;28;20056;-68
2023/03/30 08:53:02;;;;;;;5.75;3.90;;;;;;;13.82;33.61;100619.22;5076514;28;20044;-64
2023/03/30 08:55:45;;;;;;;7.65;3.53;;;;;;;13.72;32.47;100622.00;5077142;28;20055;-64
2023/03/30 08:58:13;;;;;;;5.63;3.55;;;;;;;14.11;32.16;100616.94;5060513;28;20079;-68
2023/03/30 09:00:55;;;;;;;5.30;3.40;;;;;;;13.79;32.46;100615.03;5084484;28;20048;-65
2023/03/30 09:03:46;;;;;;;5.90;3.20;;;;;;;13.97;32.84;100610.44;5083264;28;20036;-65
2023/03/30 09:06:30;;;;;;;8.60;4.28;;;;;;;13.59;33.09;100603.00;5088700;28;20031;-64
2023/03/30 09:08:55;;;;;;;5.50;4.03;;;;;;;13.60;33.20;100605.50;5085496;28;20342;-68
2023/03/30 09:11:31;;;;;;;6.82;3.75;;;;;;;13.94;32.62;100602.78;5085129;28;20111;-64
2023/03/30 09:14:00;;;;;;;6.57;3.47;;;;;;;14.30;32.71;100592.69;5082436;28;20257;-65
2023/03/30 09:16:41;;;;;;;8.18;3.90;;;;;;;14.31;31.72;100596.16;5084245;28;20330;-68
2023/03/30 09:19:15;;;;;;;5.65;3.40;;;;;;;14.18;32.56;100591.34;5081881;28;20077;-64
2023/03/30 09:21:41;;;;;;;6.80;4.20;;;;;;;13.95;34.23;100579.66;5081511;28;20079;-64
2023/03/30 09:24:16;;;;;;;6.60;3.78;;;;;;;13.97;33.19;100582.97;5091817;28;20257;-64
2023/03/30 09:26:53;;;;;;;5.75;3.78;;;;;;;13.58;34.37;100575.56;5078834;28;20044;-65
2023/03/30 09:29:23;;;;;;;7.85;4.95;;;;;;;13.60;33.15;100576.22;5087045;28;20054;-68
2023/03/30 09:32:00;;;;;;;5.95;4.38;;;;;;;13.23;34.11;100575.72;5078833;28;20044;-68
2023/03/30 09:34:45;;;;;;;6.13;4.43;;;;;;;13.54;33.59;100568.88;5093026;28;20056;-68
2023/03/30 09:37:17;;;;;;;7.60;4.47;;;;;;;13.44;33.50;100568.16;5081963;28;20048;-69
2023/03/30 09:39:44;;;;;;;5.20;4.20;;;;;;;13.24;34.43;100556.94;5092688;28;20111;-63
2023/03/30 09:42:12;;;;;;;7.22;4.28;;;;;;;13.42;34.58;100554.19;5080865;28;20090;-68
2023/03/30 09:44:44;;;;;;;5.72;4.20;;;;;;;13.64;34.60;100553.63;5089605;28;20028;-65
2023/03/30 09:47:23;;;;;;;5.38;4.07;;;;;;;13.72;33.28;100552.81;5080922;28;20059;-64
2023/03/30 09:50:01;;;;;;;6.68;4.28;;;;;;;13.92;33.61;100551.53;5085862;28;20044;-68
2023/03/30 09:52:28;;;;;;;7.10;4.05;;;;;;;14.05;33.75;100549.19;5093925;28;20040;-68
2023/03/30 09:54:54;;;;;;;10.85;5.13;;;;;;;14.05;34.07;100543.88;5077671;28;20036;-68
2023/03/30 09:57:24;;;;;;;5.90;3.45;;;;;;;14.21;33.65;100537.72;5075789;28;20136;-64
2023/03/30 09:59:51;;;;;;;12.48;5.15;;;;;;;14.22;32.58;100536.72;5078581;28;20074;-68
2023/03/30 10:02:20;;;;;;;9.90;5.28;;;;;;;14.10;33.74;100535.41;5077599;28;20385;-68
2023/03/30 10:04:51;;;;;;;6.28;3.83;;;;;;;14.13;33.81;100526.25;5076681;28;20032;-65
2023/03/30 10:07:36;;;;;;;7.28;4.18;;;;;;;14.31;32.62;100521.56;5072667;28;20036;-64
2023/03/30 10:10:12;;;;;;;5.78;4.03;;;;;;;14.35;32.74;100518.41;5075988;28;20041;-69
2023/03/30 10:12:38;;;;;;;5.70;3.25;;;;;;;14.47;33.20;100516.25;5080239;28;20044;-64
2023/03/30 10:15:04;;;;;;;5.60;3.83;;;;;;;14.54;33.14;100509.25;5079702;28;20032;-64
2023/03/30 10:17:30;;;;;;;5.97;3.60;;;;;;;14.59;32.87;100501.63;5076959;28;20282;-64
2023/03/30 10:20:20;;;;;;;6.63;3.60;;;;;;;14.51;32.98;100504.28;5077975;28;20032;-64
2023/03/30 10:22:54;;;;;;;6.05;3.70;;;;;;;14.31;34.50;100500.25;5074451;28;20063;-64
2023/03/30 10:25:26;;;;;;;8.15;5.22;;;;;;;14.38;33.76;100496.75;5076964;28;20099;-68
2023/03/30 10:27:55;;;;;;;7.72;4.10;;;;;;;14.37;33.68;100503.09;5077722;28;20041;-64
2023/03/30 10:30:24;;;;;;;3.05;2.50;;;;;;;14.30;32.84;100495.94;5077043;28;20060;-68
2023/03/30 10:32:51;;;;;;;3.90;2.80;;;;;;;14.15;32.98;100497.59;5078185;28;20365;-68
2023/03/30 10:35:22;;;;;;;6.00;3.85;;;;;;;14.09;33.56;100493.78;5077827;28;20028;-68
2023/03/30 10:37:51;;;;;;;7.93;3.70;;;;;;;13.89;34.68;100498.59;5076642;28;20108;-69
2023/03/30 10:40:22;;;;;;;4.22;3.53;;;;;;;13.96;34.04;100486.28;5076493;28;20029;-64
2023/03/30 10:42:54;;;;;;;4.50;3.28;;;;;;;13.93;33.47;100480.47;5072978;28;20059;-68
2023/03/30 10:45:26;;;;;;;4.28;2.85;;;;;;;14.19;34.57;100472.31;5076344;28;20099;-68
2023/03/30 10:48:07;;;;;;;2.22;1.60;;;;;;;14.24;35.13;100448.66;5073233;28;20048;-68
2023/03/30 10:50:48;;;;;;;5.40;3.47;;;;;;;14.41;34.75;100473.44;5075492;28;20082;-64
2023/03/30 10:53:16;;;;;;;3.33;2.55;;;;;;;14.51;33.20;100463.47;5076651;28;20040;-68
2023/03/30 10:55:51;;;;;;;5.30;2.20;;;;;;;14.66;32.50;100467.97;5076925;28;20270;-68
2023/03/30 10:58:26;;;;;;;6.80;2.72;;;;;;;14.71;32.30;100450.63;5078020;28;20032;-65
2023/03/30 11:01:20;;;;;;;2.40;1.83;;;;;;;14.79;33.11;100447.94;5076225;28;20044;-64
2023/03/30 11:03:53;;;;;;;4.32;2.10;;;;;;;14.95;33.08;100439.84;5074102;27;20051;-68
2023/03/30 11:06:39;;;;;;;2.53;2.00;;;;;;;15.15;31.71;100432.25;5072096;28;20059;-68
2023/03/30 11:09:13;;;;;;;3.55;2.30;;;;;;;15.19;32.96;100429.06;5075437;28;20029;-68
2023/03/30 11:11:46;;;;;;;4.03;2.55;;;;;;;15.16;31.02;100423.25;5073601;28;20257;-64
2023/03/30 11:14:22;;;;;;;3.33;1.80;;;;;;;15.09;31.56;100420.47;5074519;28;20044;-64
2023/03/30 11:17:01;;;;;;;3.95;2.10;;;;;;;14.98;31.45;100407.50;5074821;28;20470;-68
2023/03/30 11:19:35;;;;;;;3.05;1.85;;;;;;;15.14;31.08;100407.41;5071995;28;20027;-69
2023/03/30 11:22:47;;;;;;;3.42;1.77;;;;;;;15.19;30.47;100404.22;5074349;28;20273;-66
2023/03/30 11:25:21;;;;;;;2.40;1.60;;;;;;;15.33;30.69;100398.97;5054515;28;20043;-69
2023/03/30 11:27:56;;;;;;;2.45;1.70;;;;;;;15.27;28.89;100390.84;5073385;28;20052;-69
2023/03/30 11:30:28;;;;;;;1.70;1.27;;;;;;;15.36;28.80;100388.94;5075491;28;20103;-69
2023/03/30 11:33:16;;;;;;;2.00;1.38;;;;;;;15.41;29.19;100382.06;5076557;28;20377;-69
2023/03/30 11:35:46;;;;;;;4.53;1.88;;;;;;;15.50;28.61;100375.66;5075233;28;20052;-65
2023/03/30 11:38:20;;;;;;;2.55;1.60;;;;;;;15.52;27.35;100378.16;5072678;28;20382;-65
2023/03/30 11:40:50;;;;;;;2.08;1.58;;;;;;;15.52;29.64;100365.63;5074555;28;20028;-69